sensor_id;sensor_type;location;lat;lon;timestamp;P1;durP1;ratioP1;P2;durP2;ratioP2
13967;SDS011;39536;52.198;9.920;2022-07-23T00:00:00;10.53;;;8.53;;
13967;SDS011;39536;52.198;9.920;2022-07-23T00:02:26;9.63;;;8.87;;
13967;SDS011;39536;52.198;9.920;2022-07-23T00:04:54;8.30;;;7.60;;
13967;SDS011;39536;52.198;9.920;2022-07-23T00:07:21;9.33;;;8.50;;
13967;SDS011;39536;52.198;9.920;2022-07-23T00:09:47;9.70;;;8.37;;
13967;SDS011;39536;52.198;9.920;2022-07-23T00:12:14;8.23;;;7.53;;
13967;SDS011;39536;52.198;9.920;2022-07-23T00:14:40;8.40;;;7.70;;
13967;SDS011;39536;52.198;9.920;2022-07-23T00:17:07;9.00;;;8.20;;
13967;SDS011;39536;52.198;9.920;2022-07-23T00:19:34;7.97;;;7.37;;
13967;SDS011;39536;52.198;9.920;2022-07-23T00:22:01;8.03;;;7.30;;
13967;SDS011;39536;52.198;9.920;2022-07-23T00:24:28;8.27;;;7.67;;
13967;SDS011;39536;52.198;9.920;2022-07-23T00:26:55;7.40;;;6.87;;
13967;SDS011;39536;52.198;9.920;2022-07-23T00:29:21;7.73;;;7.10;;
13967;SDS011;39536;52.198;9.920;2022-07-23T00:31:48;8.00;;;7.40;;
13967;SDS011;39536;52.198;9.920;2022-07-23T00:34:14;7.80;;;7.00;;
13967;SDS011;39536;52.198;9.920;2022-07-23T00:36:41;8.13;;;7.37;;
13967;SDS011;39536;52.198;9.920;2022-07-23T00:39:09;9.53;;;8.03;;
13967;SDS011;39536;52.198;9.920;2022-07-23T00:41:35;9.87;;;7.23;;
13967;SDS011;39536;52.198;9.920;2022-07-23T00:44:15;8.07;;;7.47;;
13967;SDS011;39536;52.198;9.920;2022-07-23T00:46:46;8.33;;;7.60;;
13967;SDS011;39536;52.198;9.920;2022-07-23T00:49:13;8.40;;;7.70;;
13967;SDS011;39536;52.198;9.920;2022-07-23T00:51:40;10.73;;;7.60;;
13967;SDS011;39536;52.198;9.920;2022-07-23T00:54:09;10.17;;;7.73;;
13967;SDS011;39536;52.198;9.920;2022-07-23T00:56:36;7.87;;;7.17;;
13967;SDS011;39536;52.198;9.920;2022-07-23T00:59:03;7.83;;;7.07;;
13967;SDS011;39536;52.198;9.920;2022-07-23T01:01:29;7.70;;;7.03;;
13967;SDS011;39536;52.198;9.920;2022-07-23T01:03:56;8.03;;;7.40;;
13967;SDS011;39536;52.198;9.920;2022-07-23T01:06:22;7.67;;;7.00;;
13967;SDS011;39536;52.198;9.920;2022-07-23T01:08:48;8.47;;;7.10;;
13967;SDS011;39536;52.198;9.920;2022-07-23T01:11:16;7.57;;;7.07;;
13967;SDS011;39536;52.198;9.920;2022-07-23T01:13:44;8.40;;;7.60;;
13967;SDS011;39536;52.198;9.920;2022-07-23T01:16:10;7.33;;;6.73;;
13967;SDS011;39536;52.198;9.920;2022-07-23T01:18:37;7.50;;;7.00;;
13967;SDS011;39536;52.198;9.920;2022-07-23T01:21:04;8.17;;;7.37;;
13967;SDS011;39536;52.198;9.920;2022-07-23T01:23:32;8.53;;;6.97;;
13967;SDS011;39536;52.198;9.920;2022-07-23T01:25:58;8.57;;;7.67;;
13967;SDS011;39536;52.198;9.920;2022-07-23T01:28:25;8.40;;;7.17;;
13967;SDS011;39536;52.198;9.920;2022-07-23T01:30:51;7.20;;;6.50;;
13967;SDS011;39536;52.198;9.920;2022-07-23T01:33:18;7.33;;;6.83;;
13967;SDS011;39536;52.198;9.920;2022-07-23T01:35:44;8.40;;;7.67;;
13967;SDS011;39536;52.198;9.920;2022-07-23T01:38:11;7.13;;;6.53;;
13967;SDS011;39536;52.198;9.920;2022-07-23T01:40:38;9.17;;;7.37;;
13967;SDS011;39536;52.198;9.920;2022-07-23T01:43:05;10.63;;;7.50;;
13967;SDS011;39536;52.198;9.920;2022-07-23T01:45:31;8.73;;;7.43;;
13967;SDS011;39536;52.198;9.920;2022-07-23T01:47:58;8.67;;;7.97;;
13967;SDS011;39536;52.198;9.920;2022-07-23T01:50:24;7.80;;;7.20;;
13967;SDS011;39536;52.198;9.920;2022-07-23T01:52:51;8.23;;;7.50;;
13967;SDS011;39536;52.198;9.920;2022-07-23T01:55:17;8.83;;;8.13;;
13967;SDS011;39536;52.198;9.920;2022-07-23T01:57:45;7.87;;;7.30;;
13967;SDS011;39536;52.198;9.920;2022-07-23T02:00:12;12.47;;;8.90;;
13967;SDS011;39536;52.198;9.920;2022-07-23T02:02:39;10.50;;;9.70;;
13967;SDS011;39536;52.198;9.920;2022-07-23T02:05:05;9.63;;;8.87;;
13967;SDS011;39536;52.198;9.920;2022-07-23T02:07:32;9.70;;;8.87;;
13967;SDS011;39536;52.198;9.920;2022-07-23T02:09:59;11.23;;;9.60;;
13967;SDS011;39536;52.198;9.920;2022-07-23T02:12:25;10.00;;;9.10;;
13967;SDS011;39536;52.198;9.920;2022-07-23T02:14:53;11.00;;;10.13;;
13967;SDS011;39536;52.198;9.920;2022-07-23T02:17:19;10.33;;;9.53;;
13967;SDS011;39536;52.198;9.920;2022-07-23T02:19:46;10.50;;;9.50;;
13967;SDS011;39536;52.198;9.920;2022-07-23T02:22:12;11.17;;;10.17;;
13967;SDS011;39536;52.198;9.920;2022-07-23T02:24:39;11.13;;;10.20;;
13967;SDS011;39536;52.198;9.920;2022-07-23T02:27:05;10.70;;;9.90;;
13967;SDS011;39536;52.198;9.920;2022-07-23T02:29:32;12.23;;;11.00;;
13967;SDS011;39536;52.198;9.920;2022-07-23T02:31:59;11.00;;;10.13;;
13967;SDS011;39536;52.198;9.920;2022-07-23T02:34:26;11.73;;;10.80;;
13967;SDS011;39536;52.198;9.920;2022-07-23T02:36:53;12.97;;;11.87;;
13967;SDS011;39536;52.198;9.920;2022-07-23T02:39:19;11.40;;;10.40;;
13967;SDS011;39536;52.198;9.920;2022-07-23T02:41:46;12.43;;;11.37;;
13967;SDS011;39536;52.198;9.920;2022-07-23T02:44:12;11.70;;;10.77;;
13967;SDS011;39536;52.198;9.920;2022-07-23T02:46:39;11.43;;;10.57;;
13967;SDS011;39536;52.198;9.920;2022-07-23T02:49:06;11.07;;;10.20;;
13967;SDS011;39536;52.198;9.920;2022-07-23T02:51:33;11.97;;;9.97;;
13967;SDS011;39536;52.198;9.920;2022-07-23T02:53:59;10.50;;;9.63;;
13967;SDS011;39536;52.198;9.920;2022-07-23T02:56:26;11.17;;;10.07;;
13967;SDS011;39536;52.198;9.920;2022-07-23T02:58:52;10.63;;;9.73;;
13967;SDS011;39536;52.198;9.920;2022-07-23T03:01:19;10.73;;;9.90;;
13967;SDS011;39536;52.198;9.920;2022-07-23T03:03:45;10.37;;;9.63;;
13967;SDS011;39536;52.198;9.920;2022-07-23T03:06:13;10.20;;;9.30;;
13967;SDS011;39536;52.198;9.920;2022-07-23T03:08:39;9.57;;;8.77;;
13967;SDS011;39536;52.198;9.920;2022-07-23T03:11:06;10.47;;;9.67;;
13967;SDS011;39536;52.198;9.920;2022-07-23T03:13:35;9.70;;;8.77;;
13967;SDS011;39536;52.198;9.920;2022-07-23T03:16:02;9.87;;;9.17;;
13967;SDS011;39536;52.198;9.920;2022-07-23T03:18:29;9.03;;;8.33;;
13967;SDS011;39536;52.198;9.920;2022-07-23T03:20:55;14.83;;;9.33;;
13967;SDS011;39536;52.198;9.920;2022-07-23T03:23:23;11.87;;;8.93;;
13967;SDS011;39536;52.198;9.920;2022-07-23T03:25:50;8.90;;;8.17;;
13967;SDS011;39536;52.198;9.920;2022-07-23T03:28:16;9.27;;;8.37;;
13967;SDS011;39536;52.198;9.920;2022-07-23T03:30:43;9.60;;;7.73;;
13967;SDS011;39536;52.198;9.920;2022-07-23T03:33:11;9.30;;;8.33;;
13967;SDS011;39536;52.198;9.920;2022-07-23T03:35:38;8.13;;;7.03;;
13967;SDS011;39536;52.198;9.920;2022-07-23T03:38:04;13.83;;;7.40;;
13967;SDS011;39536;52.198;9.920;2022-07-23T03:40:32;10.63;;;7.63;;
13967;SDS011;39536;52.198;9.920;2022-07-23T03:42:59;7.57;;;6.97;;
13967;SDS011;39536;52.198;9.920;2022-07-23T03:45:25;9.30;;;8.43;;
13967;SDS011;39536;52.198;9.920;2022-07-23T03:47:52;9.90;;;9.10;;
13967;SDS011;39536;52.198;9.920;2022-07-23T03:50:18;9.37;;;8.57;;
13967;SDS011;39536;52.198;9.920;2022-07-23T03:52:45;8.77;;;7.97;;
13967;SDS011;39536;52.198;9.920;2022-07-23T03:55:11;9.00;;;8.20;;
13967;SDS011;39536;52.198;9.920;2022-07-23T03:57:39;9.03;;;8.33;;
13967;SDS011;39536;52.198;9.920;2022-07-23T04:00:07;8.63;;;7.87;;
13967;SDS011;39536;52.198;9.920;2022-07-23T04:02:34;8.77;;;8.07;;
13967;SDS011;39536;52.198;9.920;2022-07-23T04:05:01;8.97;;;8.03;;
13967;SDS011;39536;52.198;9.920;2022-07-23T04:07:28;8.90;;;8.17;;
13967;SDS011;39536;52.198;9.920;2022-07-23T04:09:54;8.97;;;8.13;;
13967;SDS011;39536;52.198;9.920;2022-07-23T04:12:21;9.43;;;8.33;;
13967;SDS011;39536;52.198;9.920;2022-07-23T04:14:48;9.30;;;8.40;;
13967;SDS011;39536;52.198;9.920;2022-07-23T04:17:15;9.77;;;8.97;;
13967;SDS011;39536;52.198;9.920;2022-07-23T04:19:44;9.27;;;7.80;;
13967;SDS011;39536;52.198;9.920;2022-07-23T04:22:11;9.43;;;8.63;;
13967;SDS011;39536;52.198;9.920;2022-07-23T04:24:37;9.13;;;8.33;;
13967;SDS011;39536;52.198;9.920;2022-07-23T04:27:04;8.80;;;8.07;;
13967;SDS011;39536;52.198;9.920;2022-07-23T04:29:31;8.40;;;7.80;;
13967;SDS011;39536;52.198;9.920;2022-07-23T04:31:59;9.50;;;7.70;;
13967;SDS011;39536;52.198;9.920;2022-07-23T04:34:26;9.07;;;8.27;;
13967;SDS011;39536;52.198;9.920;2022-07-23T04:36:52;8.87;;;7.97;;
13967;SDS011;39536;52.198;9.920;2022-07-23T04:39:19;9.10;;;8.30;;
13967;SDS011;39536;52.198;9.920;2022-07-23T04:41:46;8.83;;;8.03;;
13967;SDS011;39536;52.198;9.920;2022-07-23T04:44:12;9.30;;;8.40;;
13967;SDS011;39536;52.198;9.920;2022-07-23T04:46:39;9.60;;;8.80;;
13967;SDS011;39536;52.198;9.920;2022-07-23T04:49:06;11.57;;;9.30;;
13967;SDS011;39536;52.198;9.920;2022-07-23T04:51:33;10.60;;;9.47;;
13967;SDS011;39536;52.198;9.920;2022-07-23T04:53:59;10.47;;;9.73;;
13967;SDS011;39536;52.198;9.920;2022-07-23T04:56:26;10.73;;;9.73;;
13967;SDS011;39536;52.198;9.920;2022-07-23T04:58:52;10.97;;;9.97;;
13967;SDS011;39536;52.198;9.920;2022-07-23T05:01:19;10.07;;;9.23;;
13967;SDS011;39536;52.198;9.920;2022-07-23T05:03:45;9.90;;;9.00;;
13967;SDS011;39536;52.198;9.920;2022-07-23T05:06:14;10.50;;;9.77;;
13967;SDS011;39536;52.198;9.920;2022-07-23T05:08:41;11.07;;;9.93;;
13967;SDS011;39536;52.198;9.920;2022-07-23T05:11:07;9.97;;;9.17;;
13967;SDS011;39536;52.198;9.920;2022-07-23T05:13:34;11.07;;;10.00;;
13967;SDS011;39536;52.198;9.920;2022-07-23T05:16:00;10.53;;;9.57;;
13967;SDS011;39536;52.198;9.920;2022-07-23T05:18:26;10.90;;;10.10;;
13967;SDS011;39536;52.198;9.920;2022-07-23T05:20:53;10.33;;;9.23;;
13967;SDS011;39536;52.198;9.920;2022-07-23T05:23:20;10.47;;;9.60;;
13967;SDS011;39536;52.198;9.920;2022-07-23T05:25:47;10.70;;;9.80;;
13967;SDS011;39536;52.198;9.920;2022-07-23T05:28:14;10.70;;;9.80;;
13967;SDS011;39536;52.198;9.920;2022-07-23T05:30:41;11.40;;;10.40;;
13967;SDS011;39536;52.198;9.920;2022-07-23T05:33:09;10.67;;;9.67;;
13967;SDS011;39536;52.198;9.920;2022-07-23T05:35:36;9.93;;;9.30;;
13967;SDS011;39536;52.198;9.920;2022-07-23T05:38:03;10.40;;;9.40;;
13967;SDS011;39536;52.198;9.920;2022-07-23T05:40:31;10.53;;;9.73;;
13967;SDS011;39536;52.198;9.920;2022-07-23T05:42:58;11.10;;;10.00;;
13967;SDS011;39536;52.198;9.920;2022-07-23T05:45:24;10.07;;;9.13;;
13967;SDS011;39536;52.198;9.920;2022-07-23T05:47:51;10.30;;;9.37;;
13967;SDS011;39536;52.198;9.920;2022-07-23T05:50:17;10.00;;;9.30;;
13967;SDS011;39536;52.198;9.920;2022-07-23T05:52:44;9.77;;;8.90;;
13967;SDS011;39536;52.198;9.920;2022-07-23T05:55:11;9.83;;;9.03;;
13967;SDS011;39536;52.198;9.920;2022-07-23T05:57:39;13.80;;;9.87;;
13967;SDS011;39536;52.198;9.920;2022-07-23T06:00:07;10.27;;;9.47;;
13967;SDS011;39536;52.198;9.920;2022-07-23T06:02:35;13.47;;;9.67;;
13967;SDS011;39536;52.198;9.920;2022-07-23T06:05:06;10.70;;;9.67;;
13967;SDS011;39536;52.198;9.920;2022-07-23T06:07:34;9.87;;;9.13;;
13967;SDS011;39536;52.198;9.920;2022-07-23T06:10:01;9.83;;;9.13;;
13967;SDS011;39536;52.198;9.920;2022-07-23T06:12:27;9.83;;;8.90;;
13967;SDS011;39536;52.198;9.920;2022-07-23T06:14:55;9.47;;;8.77;;
13967;SDS011;39536;52.198;9.920;2022-07-23T06:17:22;10.07;;;9.20;;
13967;SDS011;39536;52.198;9.920;2022-07-23T06:19:51;9.13;;;8.53;;
13967;SDS011;39536;52.198;9.920;2022-07-23T06:22:17;8.17;;;7.33;;
13967;SDS011;39536;52.198;9.920;2022-07-23T06:24:47;8.50;;;7.70;;
13967;SDS011;39536;52.198;9.920;2022-07-23T06:27:14;8.87;;;7.37;;
13967;SDS011;39536;52.198;9.920;2022-07-23T06:29:40;7.23;;;6.43;;
13967;SDS011;39536;52.198;9.920;2022-07-23T06:32:10;7.17;;;6.60;;
13967;SDS011;39536;52.198;9.920;2022-07-23T06:34:36;6.67;;;6.27;;
13967;SDS011;39536;52.198;9.920;2022-07-23T06:37:03;6.07;;;5.50;;
13967;SDS011;39536;52.198;9.920;2022-07-23T06:39:30;5.30;;;4.63;;
13967;SDS011;39536;52.198;9.920;2022-07-23T06:41:56;5.40;;;5.00;;
13967;SDS011;39536;52.198;9.920;2022-07-23T06:44:26;5.80;;;5.30;;
13967;SDS011;39536;52.198;9.920;2022-07-23T06:54:11;6.27;;;5.70;;
13967;SDS011;39536;52.198;9.920;2022-07-23T07:05:56;6.30;;;5.77;;
13967;SDS011;39536;52.198;9.920;2022-07-23T07:08:23;6.80;;;5.53;;
13967;SDS011;39536;52.198;9.920;2022-07-23T07:10:51;6.07;;;5.47;;
13967;SDS011;39536;52.198;9.920;2022-07-23T07:13:18;6.30;;;5.13;;
13967;SDS011;39536;52.198;9.920;2022-07-23T07:15:44;5.87;;;5.27;;
13967;SDS011;39536;52.198;9.920;2022-07-23T07:18:10;5.30;;;4.80;;
13967;SDS011;39536;52.198;9.920;2022-07-23T07:20:37;5.63;;;4.70;;
13967;SDS011;39536;52.198;9.920;2022-07-23T07:23:03;5.27;;;4.87;;
13967;SDS011;39536;52.198;9.920;2022-07-23T07:25:30;6.37;;;5.37;;
13967;SDS011;39536;52.198;9.920;2022-07-23T07:27:57;9.20;;;5.50;;
13967;SDS011;39536;52.198;9.920;2022-07-23T07:30:24;6.53;;;5.67;;
13967;SDS011;39536;52.198;9.920;2022-07-23T07:32:50;6.07;;;5.40;;
13967;SDS011;39536;52.198;9.920;2022-07-23T07:35:17;5.20;;;4.70;;
13967;SDS011;39536;52.198;9.920;2022-07-23T07:37:44;4.27;;;3.97;;
13967;SDS011;39536;52.198;9.920;2022-07-23T07:40:10;5.43;;;4.93;;
13967;SDS011;39536;52.198;9.920;2022-07-23T07:42:44;5.90;;;4.67;;
13967;SDS011;39536;52.198;9.920;2022-07-23T07:45:15;4.57;;;4.23;;
13967;SDS011;39536;52.198;9.920;2022-07-23T07:47:42;8.90;;;4.83;;
13967;SDS011;39536;52.198;9.920;2022-07-23T07:50:10;5.20;;;4.70;;
13967;SDS011;39536;52.198;9.920;2022-07-23T07:52:36;4.70;;;4.17;;
13967;SDS011;39536;52.198;9.920;2022-07-23T07:55:03;4.57;;;4.17;;
13967;SDS011;39536;52.198;9.920;2022-07-23T07:57:30;5.43;;;5.00;;
13967;SDS011;39536;52.198;9.920;2022-07-23T07:59:57;4.23;;;3.83;;
13967;SDS011;39536;52.198;9.920;2022-07-23T08:02:25;4.70;;;3.80;;
13967;SDS011;39536;52.198;9.920;2022-07-23T08:04:51;4.20;;;3.90;;
13967;SDS011;39536;52.198;9.920;2022-07-23T08:07:18;4.30;;;3.90;;
13967;SDS011;39536;52.198;9.920;2022-07-23T08:09:45;4.53;;;4.23;;
13967;SDS011;39536;52.198;9.920;2022-07-23T08:12:11;3.60;;;3.30;;
13967;SDS011;39536;52.198;9.920;2022-07-23T08:14:38;3.77;;;3.47;;
13967;SDS011;39536;52.198;9.920;2022-07-23T08:17:04;7.00;;;3.90;;
13967;SDS011;39536;52.198;9.920;2022-07-23T08:19:32;4.30;;;3.80;;
13967;SDS011;39536;52.198;9.920;2022-07-23T08:21:59;4.67;;;4.00;;
13967;SDS011;39536;52.198;9.920;2022-07-23T08:24:25;5.23;;;4.73;;
13967;SDS011;39536;52.198;9.920;2022-07-23T08:26:52;4.20;;;3.90;;
13967;SDS011;39536;52.198;9.920;2022-07-23T08:29:18;4.80;;;4.40;;
13967;SDS011;39536;52.198;9.920;2022-07-23T08:31:45;4.40;;;4.10;;
13967;SDS011;39536;52.198;9.920;2022-07-23T08:34:11;4.87;;;4.47;;
13967;SDS011;39536;52.198;9.920;2022-07-23T08:36:39;4.70;;;4.10;;
13967;SDS011;39536;52.198;9.920;2022-07-23T08:39:05;5.57;;;4.37;;
13967;SDS011;39536;52.198;9.920;2022-07-23T08:41:32;4.97;;;4.50;;
13967;SDS011;39536;52.198;9.920;2022-07-23T08:44:00;4.40;;;4.00;;
13967;SDS011;39536;52.198;9.920;2022-07-23T08:46:26;4.77;;;4.00;;
13967;SDS011;39536;52.198;9.920;2022-07-23T08:48:53;3.43;;;3.13;;
13967;SDS011;39536;52.198;9.920;2022-07-23T08:51:20;3.80;;;3.50;;
13967;SDS011;39536;52.198;9.920;2022-07-23T08:53:48;3.83;;;3.33;;
13967;SDS011;39536;52.198;9.920;2022-07-23T08:56:15;3.90;;;3.40;;
13967;SDS011;39536;52.198;9.920;2022-07-23T08:58:41;3.30;;;3.00;;
13967;SDS011;39536;52.198;9.920;2022-07-23T09:01:08;3.43;;;3.13;;
13967;SDS011;39536;52.198;9.920;2022-07-23T09:03:35;3.50;;;3.20;;
13967;SDS011;39536;52.198;9.920;2022-07-23T09:06:03;3.70;;;3.40;;
13967;SDS011;39536;52.198;9.920;2022-07-23T09:08:34;3.40;;;3.20;;
13967;SDS011;39536;52.198;9.920;2022-07-23T09:11:04;3.13;;;2.90;;
13967;SDS011;39536;52.198;9.920;2022-07-23T09:13:34;2.87;;;2.60;;
13967;SDS011;39536;52.198;9.920;2022-07-23T09:16:03;3.43;;;3.13;;
13967;SDS011;39536;52.198;9.920;2022-07-23T09:18:33;3.00;;;2.80;;
13967;SDS011;39536;52.198;9.920;2022-07-23T09:21:13;2.70;;;2.50;;
13967;SDS011;39536;52.198;9.920;2022-07-23T09:23:46;3.20;;;3.00;;
13967;SDS011;39536;52.198;9.920;2022-07-23T09:26:20;2.93;;;2.73;;
13967;SDS011;39536;52.198;9.920;2022-07-23T09:29:02;3.30;;;3.00;;
13967;SDS011;39536;52.198;9.920;2022-07-23T09:31:35;2.47;;;2.27;;
13967;SDS011;39536;52.198;9.920;2022-07-23T09:34:09;3.03;;;2.83;;
13967;SDS011;39536;52.198;9.920;2022-07-23T09:36:39;3.07;;;2.87;;
13967;SDS011;39536;52.198;9.920;2022-07-23T09:39:06;3.60;;;3.00;;
13967;SDS011;39536;52.198;9.920;2022-07-23T09:41:38;3.57;;;2.80;;
13967;SDS011;39536;52.198;9.920;2022-07-23T09:44:07;2.40;;;2.30;;
13967;SDS011;39536;52.198;9.920;2022-07-23T09:46:35;2.43;;;2.23;;
13967;SDS011;39536;52.198;9.920;2022-07-23T09:49:09;2.70;;;2.50;;
13967;SDS011;39536;52.198;9.920;2022-07-23T09:51:43;2.90;;;2.60;;
13967;SDS011;39536;52.198;9.920;2022-07-23T09:54:20;2.93;;;2.73;;
13967;SDS011;39536;52.198;9.920;2022-07-23T09:56:50;4.53;;;2.40;;
13967;SDS011;39536;52.198;9.920;2022-07-23T09:59:17;3.30;;;2.53;;
13967;SDS011;39536;52.198;9.920;2022-07-23T10:01:48;3.30;;;2.50;;
13967;SDS011;39536;52.198;9.920;2022-07-23T10:04:15;3.87;;;2.83;;
13967;SDS011;39536;52.198;9.920;2022-07-23T10:06:42;3.10;;;2.80;;
13967;SDS011;39536;52.198;9.920;2022-07-23T10:09:10;2.50;;;2.40;;
13967;SDS011;39536;52.198;9.920;2022-07-23T10:11:38;2.90;;;2.70;;
13967;SDS011;39536;52.198;9.920;2022-07-23T10:14:06;2.90;;;2.70;;
13967;SDS011;39536;52.198;9.920;2022-07-23T10:16:33;4.30;;;3.03;;
13967;SDS011;39536;52.198;9.920;2022-07-23T10:19:00;2.83;;;2.63;;
13967;SDS011;39536;52.198;9.920;2022-07-23T10:21:30;4.53;;;2.77;;
13967;SDS011;39536;52.198;9.920;2022-07-23T10:24:10;2.83;;;2.60;;
13967;SDS011;39536;52.198;9.920;2022-07-23T10:26:45;2.63;;;2.50;;
13967;SDS011;39536;52.198;9.920;2022-07-23T10:29:22;2.90;;;2.70;;
13967;SDS011;39536;52.198;9.920;2022-07-23T10:32:00;2.90;;;2.80;;
13967;SDS011;39536;52.198;9.920;2022-07-23T10:34:35;3.40;;;2.50;;
13967;SDS011;39536;52.198;9.920;2022-07-23T10:37:12;2.70;;;2.50;;
13967;SDS011;39536;52.198;9.920;2022-07-23T10:39:43;3.00;;;2.80;;
13967;SDS011;39536;52.198;9.920;2022-07-23T10:42:10;3.00;;;2.80;;
13967;SDS011;39536;52.198;9.920;2022-07-23T10:44:40;3.07;;;2.80;;
13967;SDS011;39536;52.198;9.920;2022-07-23T10:47:08;3.00;;;2.67;;
13967;SDS011;39536;52.198;9.920;2022-07-23T10:49:47;2.37;;;2.17;;
13967;SDS011;39536;52.198;9.920;2022-07-23T10:52:17;1.97;;;1.87;;
13967;SDS011;39536;52.198;9.920;2022-07-23T10:54:46;2.80;;;2.60;;
13967;SDS011;39536;52.198;9.920;2022-07-23T10:57:14;3.60;;;2.27;;
13967;SDS011;39536;52.198;9.920;2022-07-23T11:02:43;3.37;;;3.07;;
13967;SDS011;39536;52.198;9.920;2022-07-23T11:05:11;2.90;;;2.63;;
13967;SDS011;39536;52.198;9.920;2022-07-23T11:10:43;2.60;;;2.40;;
13967;SDS011;39536;52.198;9.920;2022-07-23T11:13:30;3.53;;;2.60;;
13967;SDS011;39536;52.198;9.920;2022-07-23T11:16:21;2.30;;;2.10;;
13967;SDS011;39536;52.198;9.920;2022-07-23T11:18:56;2.40;;;2.20;;
13967;SDS011;39536;52.198;9.920;2022-07-23T11:24:19;2.20;;;2.10;;
13967;SDS011;39536;52.198;9.920;2022-07-23T11:26:49;2.57;;;1.80;;
13967;SDS011;39536;52.198;9.920;2022-07-23T11:29:38;2.00;;;1.90;;
13967;SDS011;39536;52.198;9.920;2022-07-23T11:32:24;2.40;;;2.23;;
13967;SDS011;39536;52.198;9.920;2022-07-23T11:34:55;3.00;;;2.73;;
13967;SDS011;39536;52.198;9.920;2022-07-23T11:40:11;3.63;;;2.57;;
13967;SDS011;39536;52.198;9.920;2022-07-23T11:42:38;2.70;;;2.10;;
13967;SDS011;39536;52.198;9.920;2022-07-23T11:45:06;3.03;;;2.07;;
13967;SDS011;39536;52.198;9.920;2022-07-23T11:47:35;3.13;;;2.20;;
13967;SDS011;39536;52.198;9.920;2022-07-23T11:50:03;1.93;;;1.83;;
13967;SDS011;39536;52.198;9.920;2022-07-23T11:52:32;2.27;;;2.07;;
13967;SDS011;39536;52.198;9.920;2022-07-23T11:54:59;2.03;;;1.93;;
13967;SDS011;39536;52.198;9.920;2022-07-23T11:57:28;1.90;;;1.80;;
13967;SDS011;39536;52.198;9.920;2022-07-23T11:59:56;2.17;;;1.77;;
13967;SDS011;39536;52.198;9.920;2022-07-23T12:02:24;2.20;;;2.10;;
13967;SDS011;39536;52.198;9.920;2022-07-23T12:04:53;5.40;;;2.10;;
13967;SDS011;39536;52.198;9.920;2022-07-23T12:07:27;1.93;;;1.73;;
13967;SDS011;39536;52.198;9.920;2022-07-23T12:09:56;1.80;;;1.70;;
13967;SDS011;39536;52.198;9.920;2022-07-23T12:12:23;1.87;;;1.77;;
13967;SDS011;39536;52.198;9.920;2022-07-23T12:14:50;1.80;;;1.70;;
13967;SDS011;39536;52.198;9.920;2022-07-23T12:17:18;1.77;;;1.67;;
13967;SDS011;39536;52.198;9.920;2022-07-23T12:19:45;1.60;;;1.50;;
13967;SDS011;39536;52.198;9.920;2022-07-23T12:22:13;1.80;;;1.70;;
13967;SDS011;39536;52.198;9.920;2022-07-23T12:24:53;2.00;;;1.60;;
13967;SDS011;39536;52.198;9.920;2022-07-23T12:27:21;1.97;;;1.77;;
13967;SDS011;39536;52.198;9.920;2022-07-23T12:29:48;1.90;;;1.67;;
13967;SDS011;39536;52.198;9.920;2022-07-23T12:32:16;2.23;;;1.53;;
13967;SDS011;39536;52.198;9.920;2022-07-23T12:34:44;1.57;;;1.40;;
13967;SDS011;39536;52.198;9.920;2022-07-23T12:37:25;2.20;;;1.80;;
13967;SDS011;39536;52.198;9.920;2022-07-23T12:39:53;2.87;;;1.63;;
13967;SDS011;39536;52.198;9.920;2022-07-23T12:42:19;2.00;;;1.57;;
13967;SDS011;39536;52.198;9.920;2022-07-23T12:45:06;2.77;;;1.80;;
13967;SDS011;39536;52.198;9.920;2022-07-23T12:50:39;1.60;;;1.50;;
13967;SDS011;39536;52.198;9.920;2022-07-23T12:53:10;1.70;;;1.60;;
13967;SDS011;39536;52.198;9.920;2022-07-23T12:55:38;1.97;;;1.60;;
13967;SDS011;39536;52.198;9.920;2022-07-23T12:58:07;1.40;;;1.30;;
13967;SDS011;39536;52.198;9.920;2022-07-23T13:00:51;1.73;;;1.33;;
13967;SDS011;39536;52.198;9.920;2022-07-23T13:03:23;1.40;;;1.30;;
13967;SDS011;39536;52.198;9.920;2022-07-23T13:05:50;1.77;;;1.50;;
13967;SDS011;39536;52.198;9.920;2022-07-23T13:08:18;2.60;;;1.47;;
13967;SDS011;39536;52.198;9.920;2022-07-23T13:10:45;1.30;;;1.20;;
13967;SDS011;39536;52.198;9.920;2022-07-23T13:13:13;1.87;;;1.60;;
13967;SDS011;39536;52.198;9.920;2022-07-23T13:15:40;1.60;;;1.53;;
13967;SDS011;39536;52.198;9.920;2022-07-23T13:18:07;1.70;;;1.53;;
13967;SDS011;39536;52.198;9.920;2022-07-23T13:20:33;1.73;;;1.60;;
13967;SDS011;39536;52.198;9.920;2022-07-23T13:23:00;1.70;;;1.43;;
13967;SDS011;39536;52.198;9.920;2022-07-23T13:25:28;1.53;;;1.43;;
13967;SDS011;39536;52.198;9.920;2022-07-23T13:27:54;1.63;;;1.50;;
13967;SDS011;39536;52.198;9.920;2022-07-23T13:30:21;1.40;;;1.30;;
13967;SDS011;39536;52.198;9.920;2022-07-23T13:32:47;1.53;;;1.43;;
13967;SDS011;39536;52.198;9.920;2022-07-23T13:35:14;1.50;;;1.40;;
13967;SDS011;39536;52.198;9.920;2022-07-23T13:37:40;1.30;;;1.30;;
13967;SDS011;39536;52.198;9.920;2022-07-23T13:40:07;1.33;;;1.17;;
13967;SDS011;39536;52.198;9.920;2022-07-23T13:42:35;1.30;;;1.20;;
13967;SDS011;39536;52.198;9.920;2022-07-23T13:45:02;1.47;;;1.23;;
13967;SDS011;39536;52.198;9.920;2022-07-23T13:47:30;1.90;;;1.40;;
13967;SDS011;39536;52.198;9.920;2022-07-23T13:49:56;1.90;;;1.37;;
13967;SDS011;39536;52.198;9.920;2022-07-23T13:52:23;1.60;;;1.37;;
13967;SDS011;39536;52.198;9.920;2022-07-23T13:54:50;2.30;;;1.10;;
13967;SDS011;39536;52.198;9.920;2022-07-23T13:57:16;1.70;;;1.40;;
13967;SDS011;39536;52.198;9.920;2022-07-23T13:59:45;1.33;;;1.23;;
13967;SDS011;39536;52.198;9.920;2022-07-23T14:02:11;1.77;;;1.27;;
13967;SDS011;39536;52.198;9.920;2022-07-23T14:04:41;2.50;;;1.40;;
13967;SDS011;39536;52.198;9.920;2022-07-23T14:07:07;1.17;;;1.07;;
13967;SDS011;39536;52.198;9.920;2022-07-23T14:09:34;1.20;;;1.20;;
13967;SDS011;39536;52.198;9.920;2022-07-23T14:12:00;1.43;;;1.33;;
13967;SDS011;39536;52.198;9.920;2022-07-23T14:14:27;1.80;;;1.23;;
13967;SDS011;39536;52.198;9.920;2022-07-23T14:16:54;9.30;;;1.20;;
13967;SDS011;39536;52.198;9.920;2022-07-23T14:19:21;2.40;;;1.20;;
13967;SDS011;39536;52.198;9.920;2022-07-23T14:21:47;1.80;;;1.00;;
13967;SDS011;39536;52.198;9.920;2022-07-23T14:24:14;2.10;;;1.20;;
13967;SDS011;39536;52.198;9.920;2022-07-23T14:26:40;1.40;;;1.30;;
13967;SDS011;39536;52.198;9.920;2022-07-23T14:29:07;1.67;;;0.97;;
13967;SDS011;39536;52.198;9.920;2022-07-23T14:31:34;1.83;;;1.23;;
13967;SDS011;39536;52.198;9.920;2022-07-23T14:34:02;1.97;;;1.23;;
13967;SDS011;39536;52.198;9.920;2022-07-23T14:36:29;1.30;;;1.00;;
13967;SDS011;39536;52.198;9.920;2022-07-23T14:38:55;1.40;;;1.30;;
13967;SDS011;39536;52.198;9.920;2022-07-23T14:41:22;1.40;;;1.30;;
13967;SDS011;39536;52.198;9.920;2022-07-23T14:43:48;2.27;;;1.53;;
13967;SDS011;39536;52.198;9.920;2022-07-23T14:46:14;1.60;;;1.00;;
13967;SDS011;39536;52.198;9.920;2022-07-23T14:48:41;1.53;;;1.40;;
13967;SDS011;39536;52.198;9.920;2022-07-23T14:51:09;1.07;;;0.97;;
13967;SDS011;39536;52.198;9.920;2022-07-23T14:53:35;3.50;;;2.03;;
13967;SDS011;39536;52.198;9.920;2022-07-23T14:56:02;1.20;;;1.10;;
13967;SDS011;39536;52.198;9.920;2022-07-23T14:58:28;2.07;;;1.00;;
13967;SDS011;39536;52.198;9.920;2022-07-23T15:00:55;2.00;;;1.30;;
13967;SDS011;39536;52.198;9.920;2022-07-23T15:03:21;4.73;;;1.00;;
13967;SDS011;39536;52.198;9.920;2022-07-23T15:05:49;0.90;;;0.90;;
13967;SDS011;39536;52.198;9.920;2022-07-23T15:08:18;1.43;;;1.33;;
13967;SDS011;39536;52.198;9.920;2022-07-23T15:10:44;1.33;;;1.23;;
13967;SDS011;39536;52.198;9.920;2022-07-23T15:13:10;1.90;;;1.17;;
13967;SDS011;39536;52.198;9.920;2022-07-23T15:15:37;1.50;;;1.20;;
13967;SDS011;39536;52.198;9.920;2022-07-23T15:18:04;2.20;;;1.33;;
13967;SDS011;39536;52.198;9.920;2022-07-23T15:20:30;1.70;;;1.00;;